首页
METAR-TAF:

METAR-TAF

机场 :

杜阿拉国际机场

杜阿拉, 喀麦隆

纬度: 04-00N, 经度: 009-44E, 海拔: 10米

当前天气观测

该预报发布于1小时和14分钟前的01:30 UTC
静风
温度 25°C
湿度 100%
气压 1011 hPa
能见度10公里或以上
多云层高于1300英尺
少量云层高于1600英尺, 积雨云.

METAR: FKKD 250130Z 00000KT 9999 BKN013 FEW016CB 25/25 Q1011 TEMPO SCT013 FEW016CB

时间: 03:44 (02:44 UTC)

预报

该预报发布于3小时和44分钟前的23:00 UTC
预报有效从25日的 00点(UTC)到 26日的 06点(UTC)
风速3节,风向多变
能见度10公里或以上
多云层高于1300英尺
少量云层高于1600英尺, 积雨云.
几率 40% :
短暂存在
从 25日的 05点(UTC)到 25日的 07点(UTC)
能見度: 2000
轻雾
成为
从 25日的 08点(UTC)到 25日的 10点(UTC)
多云层高于1600英尺
少量云层高于2000英尺, 积雨云.
几率 40% :
短暂存在
从 25日的 17点(UTC)到 25日的 20点(UTC)
雷暴
成为
从 25日的 20点(UTC)到 25日的 22点(UTC)
多云层高于1300英尺
少量云层高于1600英尺, 积雨云.

TAF: FKKD 242300Z 2500/2606 VRB03KT 9999 BKN013 FEW016CB PROB40 TEMPO 2505/2507 2000 BR BECMG 2508/2510 BKN016 FEW020CB PROB40 TEMPO 2517/2520 TS BECMG 2520/2522 BKN013 FEW016CB

超过4000个机场的气象观测和天气预报(METAR&TAF报告)。

可查询的气象台以黄色和红色小点在地图上表示。

将鼠标移到小点上方,可查看气象台名称。

然后点击查看天气观测和预报。

如需切换地图:点击带黑十字的绿色按钮放大地图;点击带横线的绿色按钮缩小地图;或者点击绿色箭头查看邻近地区的地图。


METAR-TAF: